Airfield :
LOGIN :

Register | Disclaimer

   EN    FR    IT 

 










Legend :    VFR   Marginal VFR   IFR   Intensive IFR   Very Intensive IFR
Visi :
Ceiling :
>= 8 km
>= 3000ft
5 to 8 km
1000 to 3000 ft
1500m to 5 km
500 to 1000 ft
800 to 1500m
200 to 500 ft
< 800m
< 200 ft
Symbols :   Thunderstorms  Fog  Heavy snow  Heavy precipitations  Wind > 20 kt
SIGMETs :     Misc.  Thunderstorms  Icing  Turbulence  Mountain Waves  Volcanic Ashes







- Airport Elevation : 17 ft
- IATA code : GRS


LIRS - Grosseto

CURRENT METAR :
  • 151655Z 04009KT 9999 FEW012CB FEW015CB FEW020TCU BKN050 22/16 Q1005

EXPIRED METARs :
  • 151555Z 06012KT 9999 FEW015 FEW018CB SCT040 23/18 Q1004
  • 151455Z 08009KT 9999 FEW020 SCT050 25/16 Q1004

TAF TAF LIRS
Valid from the 15 at 18:00 until the 16 at 03:00 UTC


151700Z 1518/1603 06011KT 9999 SCT025 BKN060
TEMPO 1518/1521 5000 TSRA FEW015CB BKN033
No reported NOTAMs for that airfield.
1 SIGMET reported for the Roma FIR (LIRR) :
 
Embedded thunderstorms
LIRR SIGMET 7 VALID 151700/151900 LIIB
LIRR ROMA FIR EMBD TS FCST WI N4307 E00943 - N4115 E00943 - N4112 E01159 - N4111 E01338 - N4333 E01026 - N4334 E01022 - N4307 E00943 TOP ABV FL300 STNR WKN=



MET'MAP, your aeronautical weather chart ! - Copyright ORBIFLY December 2007 - Disclaimer

ORBIFLY MET'MAP TEAM :

Programming & Development : Alexandra Zaïnal
Concept & Development : Baudouin d'Aumeries
Co-Development & Prog : Marc-Olivier Méhu
Technical & hardware support : Manuel Goepfert

Contact : metmap@orbifly.com




SOURCES & CREDITS :

   NOAA